Time,TemperatureF,DewpointF,PressureIn,WindDirection,WindDirectionDegrees,WindSpeedMPH,WindSpeedGustMPH,Humidity,HourlyPrecipIn,Conditions,Clouds,dailyrainin,SoftwareType,DateUTC
2013-09-05 00:01:00,75.7,39.3,29.53,East,94,0.0,0.0,27,0.00,,,0.00,LWC V2.10 B1813,2013-09-05 06:01:00,
2013-09-05 00:06:00,75.5,39.2,29.53,East,95,0.0,0.0,27,0.00,,,0.00,LWC V2.10 B1813,2013-09-05 06:06:00,
2013-09-05 00:11:00,75.2,38.9,29.53,East,95,1.0,4.0,27,0.00,,,0.00,LWC V2.10 B1813,2013-09-05 06:11:00,
2013-09-05 00:16:00,75.0,38.7,29.53,East,88,0.0,4.0,27,0.00,,,0.00,LWC V2.10 B1813,2013-09-05 06:16:00,
2013-09-05 00:21:00,74.9,38.7,29.53,East,88,1.0,1.0,27,0.00,,,0.00,LWC V2.10 B1813,2013-09-05 06:21:00,
2013-09-05 00:26:00,74.8,38.6,29.53,East,90,3.0,7.0,27,0.00,,,0.00,LWC V2.10 B1813,2013-09-05 06:26:00,
2013-09-05 00:31:00,74.8,38.6,29.53,East,93,2.0,3.0,27,0.00,,,0.00,LWC V2.10 B1813,2013-09-05 06:31:00,
2013-09-05 00:36:00,74.8,38.6,29.53,East,90,0.0,6.0,27,0.00,,,0.00,LWC V2.10 B1813,2013-09-05 06:36:00,
2013-09-05 00:41:00,74.9,38.7,29.53,East,90,0.0,5.0,27,0.00,,,0.00,LWC V2.10 B1813,2013-09-05 06:41:00,
2013-09-05 00:46:00,74.7,39.4,29.53,East,93,2.0,4.0,28,0.00,,,0.00,LWC V2.10 B1813,2013-09-05 06:46:00,
2013-09-05 00:51:00,74.5,39.2,29.53,East,92,3.0,4.0,28,0.00,,,0.00,LWC V2.10 B1813,2013-09-05 06:51:00,
2013-09-05 00:56:00,74.6,39.3,29.53,East,93,0.0,4.0,28,0.00,,,0.00,LWC V2.10 B1813,2013-09-05 06:56:00,
2013-09-05 01:01:00,74.3,40.0,29.53,East,92,0.0,0.0,29,0.00,,,0.00,LWC V2.10 B1813,2013-09-05 07:01:00,
2013-09-05 01:06:00,74.2,39.9,29.53,East,92,0.0,0.0,29,0.00,,,0.00,LWC V2.10 B1813,2013-09-05 07:06:00,
2013-09-05 01:11:00,74.0,39.7,29.53,East,91,0.0,0.0,29,0.00,,,0.00,LWC V2.10 B1813,2013-09-05 07:11:00,
2013-09-05 01:16:00,73.8,39.5,29.53,East,92,0.0,0.0,29,0.00,,,0.00,LWC V2.10 B1813,2013-09-05 07:16:00,
2013-09-05 01:21:00,73.7,39.5,29.53,East,92,2.0,2.0,29,0.00,,,0.00,LWC V2.10 B1813,2013-09-05 07:21:00,
2013-09-05 01:26:00,73.7,40.3,29.53,East,92,0.0,0.0,30,0.00,,,0.00,LWC V2.10 B1813,2013-09-05 07:26:00,
2013-09-05 01:31:00,73.5,41.8,29.53,East,92,0.0,0.0,32,0.00,,,0.00,LWC V2.10 B1813,2013-09-05 07:31:00,
2013-09-05 01:36:00,73.3,41.6,29.53,East,92,0.0,0.0,32,0.00,,,0.00,LWC V2.10 B1813,2013-09-05 07:36:00,
2013-09-05 01:41:00,73.0,42.2,29.53,East,91,0.0,0.0,33,0.00,,,0.00,LWC V2.10 B1813,2013-09-05 07:41:00,
2013-09-05 01:46:00,72.9,42.1,29.53,East,91,0.0,0.0,33,0.00,,,0.00,LWC V2.10 B1813,2013-09-05 07:46:00,
2013-09-05 01:51:00,72.6,41.8,29.53,East,92,0.0,0.0,33,0.00,,,0.00,LWC V2.10 B1813,2013-09-05 07:51:00,
2013-09-05 01:56:00,72.4,41.7,29.53,East,92,0.0,0.0,33,0.00,,,0.00,LWC V2.10 B1813,2013-09-05 07:56:00,
2013-09-05 02:01:00,72.3,41.6,29.53,East,91,0.0,0.0,33,0.00,,,0.00,LWC V2.10 B1813,2013-09-05 08:01:00,
2013-09-05 02:06:00,72.3,42.3,29.53,East,92,0.0,0.0,34,0.00,,,0.00,LWC V2.10 B1813,2013-09-05 08:06:00,
2013-09-05 02:11:00,72.1,43.7,29.53,East,92,0.0,0.0,36,0.00,,,0.00,LWC V2.10 B1813,2013-09-05 08:11:00,
2013-09-05 02:16:00,72.0,41.3,29.53,East,92,0.0,0.0,33,0.00,,,0.00,LWC V2.10 B1813,2013-09-05 08:16:00,
2013-09-05 02:21:00,71.8,42.7,29.53,East,91,0.0,0.0,35,0.00,,,0.00,LWC V2.10 B1813,2013-09-05 08:21:00,
2013-09-05 02:26:00,71.5,42.4,29.53,East,92,0.0,0.0,35,0.00,,,0.00,LWC V2.10 B1813,2013-09-05 08:26:00,
2013-09-05 02:31:00,71.4,43.0,29.53,East,91,0.0,0.0,36,0.00,,,0.00,LWC V2.10 B1813,2013-09-05 08:31:00,
2013-09-05 02:36:00,71.1,42.8,29.53,East,92,0.0,0.0,36,0.00,,,0.00,LWC V2.10 B1813,2013-09-05 08:36:00,
2013-09-05 02:41:00,71.1,43.5,29.53,East,92,0.0,0.0,37,0.00,,,0.00,LWC V2.10 B1813,2013-09-05 08:41:00,
2013-09-05 02:46:00,70.9,43.3,29.53,East,92,0.0,0.0,37,0.00,,,0.00,LWC V2.10 B1813,2013-09-05 08:46:00,
2013-09-05 02:51:00,70.8,43.2,29.53,East,92,0.0,0.0,37,0.00,,,0.00,LWC V2.10 B1813,2013-09-05 08:51:00,
2013-09-05 02:56:00,70.7,43.1,29.53,East,92,0.0,0.0,37,0.00,,,0.00,LWC V2.10 B1813,2013-09-05 08:56:00,
2013-09-05 03:01:00,70.6,43.7,29.53,East,92,0.0,0.0,38,0.00,,,0.00,LWC V2.10 B1813,2013-09-05 09:01:00,
2013-09-05 03:06:00,70.4,43.6,29.53,East,92,0.0,0.0,38,0.00,,,0.00,LWC V2.10 B1813,2013-09-05 09:06:00,
2013-09-05 03:11:00,70.3,44.2,29.53,East,92,0.0,0.0,39,0.00,,,0.00,LWC V2.10 B1813,2013-09-05 09:11:00,
2013-09-05 03:16:00,70.1,43.3,29.53,East,92,0.0,0.0,38,0.00,,,0.00,LWC V2.10 B1813,2013-09-05 09:16:00,
2013-09-05 03:21:00,70.0,43.2,29.53,East,92,0.0,0.0,38,0.00,,,0.00,LWC V2.10 B1813,2013-09-05 09:21:00,
2013-09-05 03:26:00,69.8,45.0,29.53,East,92,0.0,0.0,41,0.00,,,0.00,LWC V2.10 B1813,2013-09-05 09:26:00,
2013-09-05 03:31:00,69.7,44.3,29.53,East,92,0.0,0.0,40,0.00,,,0.00,LWC V2.10 B1813,2013-09-05 09:31:00,
2013-09-05 03:36:00,69.6,44.2,29.53,East,92,0.0,0.0,40,0.00,,,0.00,LWC V2.10 B1813,2013-09-05 09:36:00,
2013-09-05 03:41:00,69.5,44.1,29.53,East,92,0.0,0.0,40,0.00,,,0.00,LWC V2.10 B1813,2013-09-05 09:41:00,
2013-09-05 03:46:00,69.4,44.7,29.53,East,92,0.0,0.0,41,0.00,,,0.00,LWC V2.10 B1813,2013-09-05 09:46:00,
2013-09-05 03:51:00,69.3,43.9,29.53,East,92,0.0,0.0,40,0.00,,,0.00,LWC V2.10 B1813,2013-09-05 09:51:00,
2013-09-05 03:56:00,69.2,43.8,29.53,East,92,0.0,0.0,40,0.00,,,0.00,LWC V2.10 B1813,2013-09-05 09:56:00,
2013-09-05 04:01:00,69.0,44.3,29.53,East,92,0.0,0.0,41,0.00,,,0.00,LWC V2.10 B1813,2013-09-05 10:01:00,
2013-09-05 04:06:00,69.0,44.3,29.53,East,92,0.0,0.0,41,0.00,,,0.00,LWC V2.10 B1813,2013-09-05 10:06:00,
2013-09-05 04:11:00,68.8,44.1,29.53,East,92,0.0,0.0,41,0.00,,,0.00,LWC V2.10 B1813,2013-09-05 10:11:00,
2013-09-05 04:16:00,68.6,44.0,29.53,East,92,0.0,0.0,41,0.00,,,0.00,LWC V2.10 B1813,2013-09-05 10:16:00,
2013-09-05 04:21:00,68.5,43.9,29.53,East,91,0.0,0.0,41,0.00,,,0.00,LWC V2.10 B1813,2013-09-05 10:21:00,
2013-09-05 04:26:00,68.4,44.4,29.53,East,92,0.0,0.0,42,0.00,,,0.00,LWC V2.10 B1813,2013-09-05 10:26:00,
2013-09-05 04:31:00,68.4,45.0,29.53,East,92,0.0,0.0,43,0.00,,,0.00,LWC V2.10 B1813,2013-09-05 10:31:00,
2013-09-05 04:36:00,68.2,44.8,29.53,East,92,0.0,0.0,43,0.00,,,0.00,LWC V2.10 B1813,2013-09-05 10:36:00,
2013-09-05 04:41:00,68.0,44.0,29.53,East,92,0.0,0.0,42,0.00,,,0.00,LWC V2.10 B1813,2013-09-05 10:41:00,
2013-09-05 04:46:00,68.0,44.0,29.53,East,92,0.0,0.0,42,0.00,,,0.00,LWC V2.10 B1813,2013-09-05 10:46:00,
2013-09-05 04:51:00,67.8,44.5,29.53,East,92,0.0,0.0,43,0.00,,,0.00,LWC V2.10 B1813,2013-09-05 10:51:00,
2013-09-05 04:56:00,67.7,45.0,29.53,East,92,0.0,0.0,44,0.00,,,0.00,LWC V2.10 B1813,2013-09-05 10:56:00,
2013-09-05 05:01:00,67.6,45.5,29.53,East,92,0.0,0.0,45,0.00,,,0.00,LWC V2.10 B1813,2013-09-05 11:01:00,
2013-09-05 05:06:00,67.4,44.7,29.53,East,92,0.0,0.0,44,0.00,,,0.00,LWC V2.10 B1813,2013-09-05 11:06:00,
2013-09-05 05:11:00,67.4,45.3,29.53,East,92,0.0,0.0,45,0.00,,,0.00,LWC V2.10 B1813,2013-09-05 11:11:00,
2013-09-05 05:16:00,67.3,45.2,29.53,East,92,0.0,0.0,45,0.00,,,0.00,LWC V2.10 B1813,2013-09-05 11:16:00,
2013-09-05 05:21:00,67.1,45.0,29.53,East,92,0.0,0.0,45,0.00,,,0.00,LWC V2.10 B1813,2013-09-05 11:21:00,
2013-09-05 05:26:00,67.0,45.0,29.53,East,91,0.0,0.0,45,0.00,,,0.00,LWC V2.10 B1813,2013-09-05 11:26:00,
2013-09-05 05:31:00,66.8,45.3,29.53,East,92,0.0,0.0,46,0.00,,,0.00,LWC V2.10 B1813,2013-09-05 11:31:00,
2013-09-05 05:36:00,66.7,45.3,29.53,East,92,0.0,0.0,46,0.00,,,0.00,LWC V2.10 B1813,2013-09-05 11:36:00,
2013-09-05 05:41:00,66.6,45.2,29.53,East,91,0.0,0.0,46,0.00,,,0.00,LWC V2.10 B1813,2013-09-05 11:41:00,
2013-09-05 05:46:00,66.4,45.0,29.53,East,92,0.0,0.0,46,0.00,,,0.00,LWC V2.10 B1813,2013-09-05 11:46:00,
2013-09-05 05:51:00,66.4,46.1,29.53,East,92,0.0,0.0,48,0.00,,,0.00,LWC V2.10 B1813,2013-09-05 11:51:00,
2013-09-05 05:56:00,66.3,45.5,29.53,East,92,0.0,0.0,47,0.00,,,0.00,LWC V2.10 B1813,2013-09-05 11:56:00,
2013-09-05 06:01:00,66.3,46.0,29.53,East,92,0.0,0.0,48,0.00,,,0.00,LWC V2.10 B1813,2013-09-05 12:01:00,
2013-09-05 06:06:00,66.2,45.4,29.53,East,91,0.0,0.0,47,0.00,,,0.00,LWC V2.10 B1813,2013-09-05 12:06:00,
2013-09-05 06:11:00,66.0,45.7,29.53,East,92,0.0,0.0,48,0.00,,,0.00,LWC V2.10 B1813,2013-09-05 12:11:00,
2013-09-05 06:16:00,66.1,46.4,29.53,East,92,0.0,0.0,49,0.00,,,0.00,LWC V2.10 B1813,2013-09-05 12:16:00,
2013-09-05 06:21:00,65.8,46.1,29.53,East,91,0.0,0.0,49,0.00,,,0.00,LWC V2.10 B1813,2013-09-05 12:21:00,
2013-09-05 06:26:00,65.7,45.5,29.53,East,92,0.0,0.0,48,0.00,,,0.00,LWC V2.10 B1813,2013-09-05 12:26:00,
2013-09-05 06:31:00,65.6,45.9,29.53,East,91,0.0,0.0,49,0.00,,,0.00,LWC V2.10 B1813,2013-09-05 12:31:00,
2013-09-05 06:36:00,65.7,46.5,29.53,East,91,0.0,0.0,50,0.00,,,0.00,LWC V2.10 B1813,2013-09-05 12:36:00,
2013-09-05 06:41:00,65.6,45.4,29.53,East,92,0.0,0.0,48,0.00,,,0.00,LWC V2.10 B1813,2013-09-05 12:41:00,
2013-09-05 06:46:00,65.5,46.4,29.53,East,92,0.0,0.0,50,0.00,,,0.00,LWC V2.10 B1813,2013-09-05 12:46:00,
2013-09-05 06:51:00,65.5,45.8,29.53,East,92,0.0,0.0,49,0.00,,,0.00,LWC V2.10 B1813,2013-09-05 12:51:00,
2013-09-05 06:56:00,65.4,45.2,29.53,East,92,0.0,0.0,48,0.00,,,0.00,LWC V2.10 B1813,2013-09-05 12:56:00,
2013-09-05 07:01:00,65.4,45.7,29.53,East,92,0.0,0.0,49,0.00,,,0.00,LWC V2.10 B1813,2013-09-05 13:01:00,
2013-09-05 07:06:00,65.4,45.2,29.53,East,91,0.0,0.0,48,0.00,,,0.00,LWC V2.10 B1813,2013-09-05 13:06:00,
2013-09-05 07:11:00,65.4,45.2,29.53,East,92,0.0,0.0,48,0.00,,,0.00,LWC V2.10 B1813,2013-09-05 13:11:00,
2013-09-05 07:16:00,65.4,45.7,29.53,East,92,0.0,0.0,49,0.00,,,0.00,LWC V2.10 B1813,2013-09-05 13:16:00,
2013-09-05 07:21:00,65.5,45.8,29.53,East,92,0.0,0.0,49,0.00,,,0.00,LWC V2.10 B1813,2013-09-05 13:21:00,
2013-09-05 07:26:00,65.6,45.4,29.53,East,92,0.0,0.0,48,0.00,,,0.00,LWC V2.10 B1813,2013-09-05 13:26:00,
2013-09-05 07:31:00,65.8,46.1,29.53,East,92,0.0,0.0,49,0.00,,,0.00,LWC V2.10 B1813,2013-09-05 13:31:00,
2013-09-05 07:36:00,67.3,45.2,29.53,East,92,0.0,0.0,45,0.00,,,0.00,LWC V2.10 B1813,2013-09-05 13:36:00,
2013-09-05 07:41:00,67.5,44.8,29.53,East,92,0.0,0.0,44,0.00,,,0.00,LWC V2.10 B1813,2013-09-05 13:41:00,
2013-09-05 07:46:00,67.2,45.7,29.53,East,92,0.0,0.0,46,0.00,,,0.00,LWC V2.10 B1813,2013-09-05 13:46:00,
2013-09-05 07:51:00,67.0,46.1,29.53,East,91,0.0,0.0,47,0.00,,,0.00,LWC V2.10 B1813,2013-09-05 13:51:00,
2013-09-05 07:56:00,66.8,45.9,29.53,East,92,0.0,0.0,47,0.00,,,0.00,LWC V2.10 B1813,2013-09-05 13:56:00,
2013-09-05 08:01:00,66.7,46.9,29.53,East,92,0.0,0.0,49,0.00,,,0.00,LWC V2.10 B1813,2013-09-05 14:01:00,
2013-09-05 08:06:00,66.7,45.8,29.53,East,91,0.0,0.0,47,0.00,,,0.00,LWC V2.10 B1813,2013-09-05 14:06:00,
2013-09-05 08:11:00,66.7,46.4,29.53,East,92,0.0,0.0,48,0.00,,,0.00,LWC V2.10 B1813,2013-09-05 14:11:00,
2013-09-05 08:16:00,66.8,46.5,29.53,East,92,0.0,0.0,48,0.00,,,0.00,LWC V2.10 B1813,2013-09-05 14:16:00,
2013-09-05 08:21:00,66.9,46.0,29.53,East,92,0.0,0.0,47,0.00,,,0.00,LWC V2.10 B1813,2013-09-05 14:21:00,
2013-09-05 08:26:00,67.0,45.5,29.53,East,92,0.0,0.0,46,0.00,,,0.00,LWC V2.10 B1813,2013-09-05 14:26:00,
2013-09-05 08:31:00,67.4,45.9,29.53,East,92,0.0,0.0,46,0.00,,,0.00,LWC V2.10 B1813,2013-09-05 14:31:00,
2013-09-05 08:36:00,67.7,45.6,29.53,East,91,0.0,0.0,45,0.00,,,0.00,LWC V2.10 B1813,2013-09-05 14:36:00,
2013-09-05 08:41:00,68.3,45.5,29.53,East,92,0.0,0.0,44,0.00,,,0.00,LWC V2.10 B1813,2013-09-05 14:41:00,
2013-09-05 08:46:00,68.8,46.0,29.53,East,92,0.0,0.0,44,0.00,,,0.00,LWC V2.10 B1813,2013-09-05 14:46:00,
2013-09-05 08:51:00,69.5,45.4,29.53,East,92,0.0,0.0,42,0.00,,,0.00,LWC V2.10 B1813,2013-09-05 14:51:00,
2013-09-05 08:56:00,70.2,45.4,29.53,East,92,0.0,0.0,41,0.00,,,0.00,LWC V2.10 B1813,2013-09-05 14:56:00,
2013-09-05 09:01:00,70.8,45.3,29.53,East,92,0.0,0.0,40,0.00,,,0.00,LWC V2.10 B1813,2013-09-05 15:01:00,
2013-09-05 09:06:00,71.2,45.0,29.53,East,91,0.0,0.0,39,0.00,,,0.00,LWC V2.10 B1813,2013-09-05 15:06:00,
2013-09-05 09:11:00,71.8,45.5,29.53,East,92,0.0,0.0,39,0.00,,,0.00,LWC V2.10 B1813,2013-09-05 15:11:00,
2013-09-05 09:16:00,72.5,46.1,29.53,East,92,0.0,0.0,39,0.00,,,0.00,LWC V2.10 B1813,2013-09-05 15:16:00,
2013-09-05 09:21:00,72.9,45.1,29.53,East,92,0.0,0.0,37,0.00,,,0.00,LWC V2.10 B1813,2013-09-05 15:21:00,
2013-09-05 09:26:00,73.2,45.4,29.53,East,92,0.0,0.0,37,0.00,,,0.00,LWC V2.10 B1813,2013-09-05 15:26:00,
2013-09-05 09:31:00,73.7,45.1,29.53,East,92,0.0,1.0,36,0.00,,,0.00,LWC V2.10 B1813,2013-09-05 15:31:00,
2013-09-05 09:36:00,73.9,46.0,29.53,East,92,0.0,1.0,37,0.00,,,0.00,LWC V2.10 B1813,2013-09-05 15:36:00,
2013-09-05 09:41:00,74.2,44.8,29.53,East,92,0.0,0.0,35,0.00,,,0.00,LWC V2.10 B1813,2013-09-05 15:41:00,
2013-09-05 09:46:00,74.5,45.8,29.53,East,92,0.0,0.0,36,0.00,,,0.00,LWC V2.10 B1813,2013-09-05 15:46:00,
2013-09-05 09:51:00,74.8,44.5,29.53,East,92,0.0,1.0,34,0.00,,,0.00,LWC V2.10 B1813,2013-09-05 15:51:00,
2013-09-05 09:56:00,75.2,45.7,29.53,East,92,0.0,0.0,35,0.00,,,0.00,LWC V2.10 B1813,2013-09-05 15:56:00,
2013-09-05 10:01:00,75.4,45.1,29.53,East,92,0.0,0.0,34,0.00,,,0.00,LWC V2.10 B1813,2013-09-05 16:01:00,
2013-09-05 10:06:00,75.7,45.3,29.53,East,92,0.0,1.0,34,0.00,,,0.00,LWC V2.10 B1813,2013-09-05 16:06:00,
2013-09-05 10:11:00,76.0,44.8,29.53,East,92,0.0,0.0,33,0.00,,,0.00,LWC V2.10 B1813,2013-09-05 16:11:00,
2013-09-05 10:16:00,76.2,45.8,29.53,East,92,0.0,0.0,34,0.00,,,0.00,LWC V2.10 B1813,2013-09-05 16:16:00,
2013-09-05 10:21:00,76.6,45.3,29.53,East,92,0.0,0.0,33,0.00,,,0.00,LWC V2.10 B1813,2013-09-05 16:21:00,
2013-09-05 10:26:00,76.8,45.5,29.53,East,92,0.0,0.0,33,0.00,,,0.00,LWC V2.10 B1813,2013-09-05 16:26:00,
2013-09-05 10:31:00,77.0,44.9,29.53,East,92,0.0,0.0,32,0.00,,,0.00,LWC V2.10 B1813,2013-09-05 16:31:00,
2013-09-05 10:36:00,77.1,45.8,29.53,East,92,0.0,0.0,33,0.00,,,0.00,LWC V2.10 B1813,2013-09-05 16:36:00,
2013-09-05 10:41:00,77.4,45.2,29.53,East,92,0.0,1.0,32,0.00,,,0.00,LWC V2.10 B1813,2013-09-05 16:41:00,
2013-09-05 10:46:00,77.7,45.5,29.53,East,92,0.0,0.0,32,0.00,,,0.00,LWC V2.10 B1813,2013-09-05 16:46:00,
2013-09-05 10:51:00,77.9,43.1,29.53,East,92,0.0,0.0,29,0.00,,,0.00,LWC V2.10 B1813,2013-09-05 16:51:00,
2013-09-05 10:56:00,78.2,45.1,29.53,East,92,0.0,2.0,31,0.00,,,0.00,LWC V2.10 B1813,2013-09-05 16:56:00,
2013-09-05 11:01:00,78.5,45.3,29.53,East,91,3.0,3.0,31,0.00,,,0.00,LWC V2.10 B1813,2013-09-05 17:01:00,
2013-09-05 11:06:00,78.6,43.7,29.53,ENE,70,0.0,0.0,29,0.00,,,0.00,LWC V2.10 B1813,2013-09-05 17:06:00,
2013-09-05 11:11:00,78.8,42.9,29.53,ENE,71,0.0,0.0,28,0.00,,,0.00,LWC V2.10 B1813,2013-09-05 17:11:00,
2013-09-05 11:16:00,79.4,43.4,29.53,ENE,70,0.0,0.0,28,0.00,,,0.00,LWC V2.10 B1813,2013-09-05 17:16:00,
2013-09-05 11:21:00,79.6,42.7,29.53,ENE,70,0.0,0.0,27,0.00,,,0.00,LWC V2.10 B1813,2013-09-05 17:21:00,
2013-09-05 11:26:00,79.9,42.9,29.53,NE,42,0.0,7.0,27,0.00,,,0.00,LWC V2.10 B1813,2013-09-05 17:26:00,
2013-09-05 11:31:00,80.1,44.0,29.53,NE,45,0.0,4.0,28,0.00,,,0.00,LWC V2.10 B1813,2013-09-05 17:31:00,
2013-09-05 11:36:00,80.6,43.5,29.53,NE,40,0.0,5.0,27,0.00,,,0.00,LWC V2.10 B1813,2013-09-05 17:36:00,
2013-09-05 11:41:00,80.7,43.6,29.53,NE,47,0.0,1.0,27,0.00,,,0.00,LWC V2.10 B1813,2013-09-05 17:41:00,
2013-09-05 11:46:00,80.8,43.7,29.53,NE,48,0.0,0.0,27,0.00,,,0.00,LWC V2.10 B1813,2013-09-05 17:46:00,
2013-09-05 11:51:00,81.0,43.8,29.53,NE,48,0.0,1.0,27,0.00,,,0.00,LWC V2.10 B1813,2013-09-05 17:51:00,
2013-09-05 11:56:00,81.2,44.0,29.53,NE,48,0.0,1.0,27,0.00,,,0.00,LWC V2.10 B1813,2013-09-05 17:56:00,
2013-09-05 12:01:00,81.5,43.3,29.53,NE,44,0.0,0.0,26,0.00,,,0.00,LWC V2.10 B1813,2013-09-05 18:01:00,
2013-09-05 12:06:00,81.6,43.4,29.53,NE,44,0.0,0.0,26,0.00,,,0.00,LWC V2.10 B1813,2013-09-05 18:06:00,
2013-09-05 12:11:00,82.1,42.8,29.53,WNW,295,2.0,2.0,25,0.00,,,0.00,LWC V2.10 B1813,2013-09-05 18:11:00,
2013-09-05 12:16:00,82.3,42.9,29.53,West,274,0.0,1.0,25,0.00,,,0.00,LWC V2.10 B1813,2013-09-05 18:16:00,
2013-09-05 12:21:00,82.4,44.0,29.53,West,273,0.0,0.0,26,0.00,,,0.00,LWC V2.10 B1813,2013-09-05 18:21:00,
2013-09-05 12:26:00,82.4,43.0,29.53,ENE,77,0.0,3.0,25,0.00,,,0.00,LWC V2.10 B1813,2013-09-05 18:26:00,
2013-09-05 12:31:00,82.8,42.3,29.53,SSE,151,0.0,3.0,24,0.00,,,0.00,LWC V2.10 B1813,2013-09-05 18:31:00,
2013-09-05 12:36:00,83.0,43.5,29.53,SSE,156,0.0,0.0,25,0.00,,,0.00,LWC V2.10 B1813,2013-09-05 18:36:00,
2013-09-05 12:41:00,83.1,42.5,29.53,SSE,157,0.0,1.0,24,0.00,,,0.00,LWC V2.10 B1813,2013-09-05 18:41:00,
2013-09-05 12:46:00,83.0,42.5,29.53,SSE,159,0.0,0.0,24,0.00,,,0.00,LWC V2.10 B1813,2013-09-05 18:46:00,
2013-09-05 12:51:00,83.1,44.6,29.53,SSE,160,0.0,0.0,26,0.00,,,0.00,LWC V2.10 B1813,2013-09-05 18:51:00,
2013-09-05 12:56:00,83.3,43.8,29.53,SSE,160,0.0,0.0,25,0.00,,,0.00,LWC V2.10 B1813,2013-09-05 18:56:00,
2013-09-05 13:01:00,83.6,44.0,29.53,SSE,160,0.0,0.0,25,0.00,,,0.00,LWC V2.10 B1813,2013-09-05 19:01:00,
2013-09-05 13:06:00,83.7,44.1,29.53,SSE,160,0.0,0.0,25,0.00,,,0.00,LWC V2.10 B1813,2013-09-05 19:06:00,
2013-09-05 13:11:00,84.0,44.4,29.53,SSE,164,0.0,0.0,25,0.00,,,0.00,LWC V2.10 B1813,2013-09-05 19:11:00,
2013-09-05 13:16:00,84.1,43.4,29.53,SSE,164,0.0,1.0,24,0.00,,,0.00,LWC V2.10 B1813,2013-09-05 19:16:00,
2013-09-05 13:21:00,83.9,43.2,29.53,SSE,164,0.0,0.0,24,0.00,,,0.00,LWC V2.10 B1813,2013-09-05 19:21:00,
2013-09-05 13:26:00,84.2,43.5,29.53,SSE,165,0.0,1.0,24,0.00,,,0.00,LWC V2.10 B1813,2013-09-05 19:26:00,
2013-09-05 13:31:00,84.4,43.6,29.53,South,176,0.0,2.0,24,0.00,,,0.00,LWC V2.10 B1813,2013-09-05 19:31:00,
2013-09-05 13:36:00,84.7,43.9,29.53,South,176,0.0,1.0,24,0.00,,,0.00,LWC V2.10 B1813,2013-09-05 19:36:00,
2013-09-05 13:41:00,84.8,44.0,29.53,SSE,155,0.0,0.0,24,0.00,,,0.00,LWC V2.10 B1813,2013-09-05 19:41:00,
2013-09-05 13:46:00,85.1,44.2,29.53,SSE,159,0.0,0.0,24,0.00,,,0.00,LWC V2.10 B1813,2013-09-05 19:46:00,
2013-09-05 13:51:00,85.2,44.3,29.53,SSE,167,0.0,2.0,24,0.00,,,0.00,LWC V2.10 B1813,2013-09-05 19:51:00,
2013-09-05 13:56:00,85.3,43.3,29.53,SSE,167,0.0,1.0,23,0.00,,,0.00,LWC V2.10 B1813,2013-09-05 19:56:00,
2013-09-05 14:01:00,85.2,44.3,29.53,SSE,167,0.0,0.0,24,0.00,,,0.00,LWC V2.10 B1813,2013-09-05 20:01:00,
2013-09-05 14:06:00,85.5,44.6,29.53,SW,215,0.0,0.0,24,0.00,,,0.00,LWC V2.10 B1813,2013-09-05 20:06:00,
2013-09-05 14:11:00,85.7,43.6,29.53,SSW,194,0.0,1.0,23,0.00,,,0.00,LWC V2.10 B1813,2013-09-05 20:11:00,
2013-09-05 14:16:00,85.9,43.8,29.53,South,178,0.0,1.0,23,0.00,,,0.00,LWC V2.10 B1813,2013-09-05 20:16:00,
2013-09-05 14:21:00,86.3,45.2,29.53,South,178,0.0,1.0,24,0.00,,,0.00,LWC V2.10 B1813,2013-09-05 20:21:00,
2013-09-05 14:26:00,86.3,44.1,29.53,SSE,155,0.0,5.0,23,0.00,,,0.00,LWC V2.10 B1813,2013-09-05 20:26:00,
2013-09-05 14:31:00,86.5,43.1,29.53,SSE,153,0.0,0.0,22,0.00,,,0.00,LWC V2.10 B1813,2013-09-05 20:31:00,
2013-09-05 14:36:00,86.5,43.1,29.53,SSE,157,0.0,0.0,22,0.00,,,0.00,LWC V2.10 B1813,2013-09-05 20:36:00,
2013-09-05 14:41:00,86.6,43.2,29.53,SSE,156,0.0,1.0,22,0.00,,,0.00,LWC V2.10 B1813,2013-09-05 20:41:00,
2013-09-05 14:46:00,86.8,43.4,29.53,South,177,0.0,0.0,22,0.00,,,0.00,LWC V2.10 B1813,2013-09-05 20:46:00,
2013-09-05 14:51:00,86.9,44.6,29.53,East,99,0.0,7.0,23,0.00,,,0.00,LWC V2.10 B1813,2013-09-05 20:51:00,
2013-09-05 14:56:00,87.1,44.8,29.53,South,191,0.0,0.0,23,0.00,,,0.00,LWC V2.10 B1813,2013-09-05 20:56:00,
2013-09-05 15:01:00,87.2,44.9,29.53,WNW,290,2.0,6.0,23,0.00,,,0.00,LWC V2.10 B1813,2013-09-05 21:01:00,
2013-09-05 15:06:00,87.2,43.7,29.53,North,351,0.0,0.0,22,0.00,,,0.00,LWC V2.10 B1813,2013-09-05 21:06:00,
2013-09-05 15:12:00,87.3,43.8,29.53,SSW,199,0.0,1.0,22,0.00,,,0.00,LWC V2.10 B1813,2013-09-05 21:12:00,
2013-09-05 15:17:00,87.2,42.5,29.53,SSE,153,1.0,3.0,21,0.00,,,0.00,LWC V2.10 B1813,2013-09-05 21:17:00,
2013-09-05 15:22:00,87.4,42.6,29.53,SSE,155,0.0,0.0,21,0.00,,,0.00,LWC V2.10 B1813,2013-09-05 21:22:00,
2013-09-05 15:27:00,87.6,42.8,29.53,SSE,153,0.0,1.0,21,0.00,,,0.00,LWC V2.10 B1813,2013-09-05 21:27:00,
2013-09-05 15:32:00,87.9,45.4,29.53,SSE,149,0.0,1.0,23,0.00,,,0.00,LWC V2.10 B1813,2013-09-05 21:32:00,
2013-09-05 15:37:00,87.9,45.4,29.53,SSE,165,0.0,2.0,23,0.00,,,0.00,LWC V2.10 B1813,2013-09-05 21:37:00,
2013-09-05 15:42:00,87.8,45.4,29.53,SSE,166,0.0,1.0,23,0.00,,,0.00,LWC V2.10 B1813,2013-09-05 21:42:00,
2013-09-05 15:47:00,88.1,44.4,29.53,SSE,167,0.0,0.0,22,0.00,,,0.00,LWC V2.10 B1813,2013-09-05 21:47:00,
2013-09-05 15:52:00,88.0,45.5,29.53,NW,324,0.0,3.0,23,0.00,,,0.00,LWC V2.10 B1813,2013-09-05 21:52:00,
2013-09-05 15:57:00,88.0,43.1,29.53,WNW,300,0.0,0.0,21,0.00,,,0.00,LWC V2.10 B1813,2013-09-05 21:57:00,
2013-09-05 16:02:00,88.0,44.4,29.53,WNW,300,0.0,0.0,22,0.00,,,0.00,LWC V2.10 B1813,2013-09-05 22:02:00,
2013-09-05 16:07:00,87.9,44.3,29.53,WNW,303,0.0,1.0,22,0.00,,,0.00,LWC V2.10 B1813,2013-09-05 22:07:00,
2013-09-05 16:12:00,88.2,44.5,29.53,WNW,303,0.0,0.0,22,0.00,,,0.00,LWC V2.10 B1813,2013-09-05 22:12:00,
2013-09-05 16:17:00,88.2,45.7,29.53,WNW,303,0.0,0.0,23,0.00,,,0.00,LWC V2.10 B1813,2013-09-05 22:17:00,
2013-09-05 16:22:00,88.1,43.2,29.53,WNW,282,0.0,0.0,21,0.00,,,0.00,LWC V2.10 B1813,2013-09-05 22:22:00,
2013-09-05 16:27:00,88.1,44.4,29.53,WNW,282,0.0,1.0,22,0.00,,,0.00,LWC V2.10 B1813,2013-09-05 22:27:00,
2013-09-05 16:32:00,88.0,43.1,29.53,WNW,289,0.0,0.0,21,0.00,,,0.00,LWC V2.10 B1813,2013-09-05 22:32:00,
2013-09-05 16:37:00,87.8,43.0,29.53,South,187,0.0,0.0,21,0.00,,,0.00,LWC V2.10 B1813,2013-09-05 22:37:00,
2013-09-05 16:42:00,87.8,43.0,29.53,SSE,158,0.0,1.0,21,0.00,,,0.00,LWC V2.10 B1813,2013-09-05 22:42:00,
2013-09-05 16:47:00,87.7,44.1,29.53,WNW,299,0.0,1.0,22,0.00,,,0.00,LWC V2.10 B1813,2013-09-05 22:47:00,
2013-09-05 16:52:00,87.6,44.0,29.53,SW,224,0.0,1.0,22,0.00,,,0.00,LWC V2.10 B1813,2013-09-05 22:52:00,
2013-09-05 16:57:00,87.5,43.9,29.53,SSW,211,0.0,0.0,22,0.00,,,0.00,LWC V2.10 B1813,2013-09-05 22:57:00,
2013-09-05 17:02:00,87.5,42.7,29.53,SE,139,0.0,2.0,21,0.00,,,0.00,LWC V2.10 B1813,2013-09-05 23:02:00,
2013-09-05 17:07:00,87.3,42.6,29.53,SE,139,0.0,1.0,21,0.00,,,0.00,LWC V2.10 B1813,2013-09-05 23:07:00,
2013-09-05 17:12:00,87.2,42.5,29.53,SE,142,0.0,0.0,21,0.00,,,0.00,LWC V2.10 B1813,2013-09-05 23:12:00,
2013-09-05 17:17:00,87.0,42.3,29.53,SE,143,0.0,1.0,21,0.00,,,0.00,LWC V2.10 B1813,2013-09-05 23:17:00,
2013-09-05 17:22:00,87.0,43.5,29.53,SE,142,0.0,0.0,22,0.00,,,0.00,LWC V2.10 B1813,2013-09-05 23:22:00,
2013-09-05 17:27:00,86.9,42.2,29.53,SE,146,0.0,0.0,21,0.00,,,0.00,LWC V2.10 B1813,2013-09-05 23:27:00,
2013-09-05 17:32:00,86.9,42.2,29.53,SE,146,0.0,0.0,21,0.00,,,0.00,LWC V2.10 B1813,2013-09-05 23:32:00,
2013-09-05 17:37:00,86.7,42.1,29.53,SE,146,0.0,0.0,21,0.00,,,0.00,LWC V2.10 B1813,2013-09-05 23:37:00,
2013-09-05 17:42:00,86.5,43.1,29.53,SE,146,0.0,1.0,22,0.00,,,0.00,LWC V2.10 B1813,2013-09-05 23:42:00,
2013-09-05 17:47:00,86.4,41.8,29.53,SE,146,0.0,0.0,21,0.00,,,0.00,LWC V2.10 B1813,2013-09-05 23:47:00,
2013-09-05 17:52:00,86.2,44.0,29.53,SE,146,0.0,0.0,23,0.00,,,0.00,LWC V2.10 B1813,2013-09-05 23:52:00,
2013-09-05 17:57:00,86.0,42.7,29.53,SE,146,0.0,1.0,22,0.00,,,0.00,LWC V2.10 B1813,2013-09-05 23:57:00,
2013-09-05 18:02:00,85.8,42.5,29.53,SE,146,0.0,0.0,22,0.00,,,0.00,LWC V2.10 B1813,2013-09-06 00:02:00,
2013-09-05 18:07:00,85.6,42.4,29.53,SE,146,0.0,0.0,22,0.00,,,0.00,LWC V2.10 B1813,2013-09-06 00:07:00,
2013-09-05 18:12:00,85.5,43.4,29.53,SSE,147,0.0,0.0,23,0.00,,,0.00,LWC V2.10 B1813,2013-09-06 00:12:00,
2013-09-05 18:17:00,85.3,43.3,29.53,SE,146,0.0,0.0,23,0.00,,,0.00,LWC V2.10 B1813,2013-09-06 00:17:00,
2013-09-05 18:22:00,85.2,43.2,29.53,SE,146,0.0,0.0,23,0.00,,,0.00,LWC V2.10 B1813,2013-09-06 00:22:00,
2013-09-05 18:27:00,85.0,43.0,29.53,SE,146,0.0,0.0,23,0.00,,,0.00,LWC V2.10 B1813,2013-09-06 00:27:00,
2013-09-05 18:32:00,84.8,44.0,29.53,SE,146,0.0,0.0,24,0.00,,,0.00,LWC V2.10 B1813,2013-09-06 00:32:00,
2013-09-05 18:37:00,84.7,42.8,29.53,SSE,147,0.0,0.0,23,0.00,,,0.00,LWC V2.10 B1813,2013-09-06 00:37:00,
2013-09-05 18:42:00,84.5,42.6,29.53,SE,146,0.0,0.0,23,0.00,,,0.00,LWC V2.10 B1813,2013-09-06 00:42:00,
2013-09-05 18:47:00,84.4,42.5,29.53,SSE,147,0.0,0.0,23,0.00,,,0.00,LWC V2.10 B1813,2013-09-06 00:47:00,
2013-09-05 18:52:00,84.0,43.3,29.53,SE,146,0.0,0.0,24,0.00,,,0.00,LWC V2.10 B1813,2013-09-06 00:52:00,
2013-09-05 18:57:00,83.8,42.0,29.53,SE,146,0.0,0.0,23,0.00,,,0.00,LWC V2.10 B1813,2013-09-06 00:57:00,
2013-09-05 19:02:00,83.6,41.9,29.53,SE,146,0.0,0.0,23,0.00,,,0.00,LWC V2.10 B1813,2013-09-06 01:02:00,
2013-09-05 19:07:00,83.4,42.8,29.53,SSE,147,0.0,0.0,24,0.00,,,0.00,LWC V2.10 B1813,2013-09-06 01:07:00,
2013-09-05 19:12:00,83.1,44.6,29.53,SSE,147,0.0,0.0,26,0.00,,,0.00,LWC V2.10 B1813,2013-09-06 01:12:00,
2013-09-05 19:17:00,82.8,44.4,29.53,SE,146,0.0,0.0,26,0.00,,,0.00,LWC V2.10 B1813,2013-09-06 01:17:00,
2013-09-05 19:22:00,82.7,45.3,29.53,SE,146,0.0,0.0,27,0.00,,,0.00,LWC V2.10 B1813,2013-09-06 01:22:00,
2013-09-05 19:27:00,82.3,44.9,29.53,SE,146,0.0,0.0,27,0.00,,,0.00,LWC V2.10 B1813,2013-09-06 01:27:00,
2013-09-05 19:32:00,81.9,46.5,29.53,SE,146,0.0,0.0,29,0.00,,,0.00,LWC V2.10 B1813,2013-09-06 01:32:00,
2013-09-05 19:37:00,81.7,46.3,29.53,SSE,147,0.0,0.0,29,0.00,,,0.00,LWC V2.10 B1813,2013-09-06 01:37:00,
2013-09-05 19:42:00,81.5,48.8,29.53,SE,146,0.0,0.0,32,0.00,,,0.00,LWC V2.10 B1813,2013-09-06 01:42:00,
2013-09-05 19:47:00,81.2,47.7,29.53,SE,146,0.0,0.0,31,0.00,,,0.00,LWC V2.10 B1813,2013-09-06 01:47:00,
2013-09-05 19:52:00,80.8,48.2,29.53,SSE,147,0.0,0.0,32,0.00,,,0.00,LWC V2.10 B1813,2013-09-06 01:52:00,
2013-09-05 19:57:00,80.8,46.4,29.53,SSE,147,0.0,0.0,30,0.00,,,0.00,LWC V2.10 B1813,2013-09-06 01:57:00,
2013-09-05 20:02:00,80.5,45.3,29.53,SE,146,0.0,0.0,29,0.00,,,0.00,LWC V2.10 B1813,2013-09-06 02:02:00,
2013-09-05 20:07:00,80.3,45.1,29.53,SSE,147,0.0,0.0,29,0.00,,,0.00,LWC V2.10 B1813,2013-09-06 02:07:00,
2013-09-05 20:12:00,80.2,43.2,29.53,SE,146,0.0,1.0,27,0.00,,,0.00,LWC V2.10 B1813,2013-09-06 02:12:00,
2013-09-05 20:17:00,80.1,43.1,29.53,SSE,147,0.0,0.0,27,0.00,,,0.00,LWC V2.10 B1813,2013-09-06 02:17:00,
2013-09-05 20:22:00,79.9,41.9,29.53,SE,146,0.0,0.0,26,0.00,,,0.00,LWC V2.10 B1813,2013-09-06 02:22:00,
2013-09-05 20:27:00,79.9,42.9,29.53,SE,146,0.0,0.0,27,0.00,,,0.00,LWC V2.10 B1813,2013-09-06 02:27:00,
2013-09-05 20:32:00,79.5,41.6,29.53,SE,146,0.0,0.0,26,0.00,,,0.00,LWC V2.10 B1813,2013-09-06 02:32:00,
2013-09-05 20:37:00,79.6,40.7,29.53,SE,146,0.0,0.0,25,0.00,,,0.00,LWC V2.10 B1813,2013-09-06 02:37:00,
2013-09-05 20:42:00,79.4,40.5,29.53,SE,146,0.0,2.0,25,0.00,,,0.00,LWC V2.10 B1813,2013-09-06 02:42:00,
2013-09-05 20:47:00,79.4,39.4,29.53,SE,146,0.0,1.0,24,0.00,,,0.00,LWC V2.10 B1813,2013-09-06 02:47:00,
2013-09-05 20:52:00,79.6,39.6,29.53,SE,146,0.0,0.0,24,0.00,,,0.00,LWC V2.10 B1813,2013-09-06 02:52:00,
2013-09-05 20:57:00,79.3,39.4,29.53,SE,146,0.0,0.0,24,0.00,,,0.00,LWC V2.10 B1813,2013-09-06 02:57:00,
2013-09-05 21:02:00,79.2,40.3,29.53,SE,146,0.0,0.0,25,0.00,,,0.00,LWC V2.10 B1813,2013-09-06 03:02:00,
2013-09-05 21:07:00,79.1,39.2,29.53,SSE,147,0.0,0.0,24,0.00,,,0.00,LWC V2.10 B1813,2013-09-06 03:07:00,
2013-09-05 21:12:00,79.0,39.1,29.53,SSE,147,0.0,0.0,24,0.00,,,0.00,LWC V2.10 B1813,2013-09-06 03:12:00,
2013-09-05 21:17:00,78.9,39.0,29.53,SSE,147,0.0,0.0,24,0.00,,,0.00,LWC V2.10 B1813,2013-09-06 03:17:00,
2013-09-05 21:22:00,79.0,39.1,29.53,SE,146,0.0,1.0,24,0.00,,,0.00,LWC V2.10 B1813,2013-09-06 03:22:00,
2013-09-05 21:27:00,78.5,38.7,29.53,SE,146,0.0,0.0,24,0.00,,,0.00,LWC V2.10 B1813,2013-09-06 03:27:00,
2013-09-05 21:32:00,78.5,38.7,29.53,SE,146,0.0,2.0,24,0.00,,,0.00,LWC V2.10 B1813,2013-09-06 03:32:00,
2013-09-05 21:37:00,78.4,39.6,29.53,SE,146,0.0,0.0,25,0.00,,,0.00,LWC V2.10 B1813,2013-09-06 03:37:00,
2013-09-05 21:42:00,78.1,39.4,29.53,SE,146,0.0,1.0,25,0.00,,,0.00,LWC V2.10 B1813,2013-09-06 03:42:00,
2013-09-05 21:47:00,78.0,39.3,29.53,SE,146,0.0,0.0,25,0.00,,,0.00,LWC V2.10 B1813,2013-09-06 03:47:00,
2013-09-05 21:52:00,77.9,39.2,29.53,SE,146,0.0,0.0,25,0.00,,,0.00,LWC V2.10 B1813,2013-09-06 03:52:00,
2013-09-05 21:57:00,77.5,38.9,29.53,SE,146,0.0,0.0,25,0.00,,,0.00,LWC V2.10 B1813,2013-09-06 03:57:00,
2013-09-05 22:01:00,77.6,40.0,29.53,SE,146,0.0,0.0,26,0.00,,,0.00,LWC V2.10 B1813,2013-09-06 04:01:00,
2013-09-05 22:02:00,77.8,40.1,29.53,SE,146,0.0,0.0,26,0.00,,,0.00,LWC V2.10 B1813,2013-09-06 04:02:00,
2013-09-05 22:07:00,77.4,38.8,29.53,SE,146,0.0,0.0,25,0.00,,,0.00,LWC V2.10 B1813,2013-09-06 04:07:00,
2013-09-05 22:12:00,77.3,38.7,29.53,SE,146,0.0,1.0,25,0.00,,,0.00,LWC V2.10 B1813,2013-09-06 04:12:00,
2013-09-05 22:17:00,77.3,38.7,29.53,SE,146,0.0,0.0,25,0.00,,,0.00,LWC V2.10 B1813,2013-09-06 04:17:00,
2013-09-05 22:22:00,77.2,37.6,29.53,SE,146,0.0,1.0,24,0.00,,,0.00,LWC V2.10 B1813,2013-09-06 04:22:00,
2013-09-05 22:27:00,77.2,37.6,29.53,SE,146,0.0,0.0,24,0.00,,,0.00,LWC V2.10 B1813,2013-09-06 04:27:00,
2013-09-05 22:32:00,77.1,37.5,29.53,SE,146,0.0,0.0,24,0.00,,,0.00,LWC V2.10 B1813,2013-09-06 04:32:00,
2013-09-05 22:37:00,77.0,37.4,29.53,SSE,147,0.0,0.0,24,0.00,,,0.00,LWC V2.10 B1813,2013-09-06 04:37:00,
2013-09-05 22:42:00,76.9,37.3,29.53,SSE,148,0.0,0.0,24,0.00,,,0.00,LWC V2.10 B1813,2013-09-06 04:42:00,
2013-09-05 22:47:00,76.8,37.3,29.53,SSE,148,0.0,0.0,24,0.00,,,0.00,LWC V2.10 B1813,2013-09-06 04:47:00,
2013-09-05 22:52:00,76.7,37.2,29.53,SSE,147,0.0,0.0,24,0.00,,,0.00,LWC V2.10 B1813,2013-09-06 04:52:00,
2013-09-05 22:57:00,76.5,37.0,29.53,SSE,148,0.0,0.0,24,0.00,,,0.00,LWC V2.10 B1813,2013-09-06 04:57:00,
2013-09-05 23:02:00,76.4,38.0,29.53,SSE,147,0.0,0.0,25,0.00,,,0.00,LWC V2.10 B1813,2013-09-06 05:02:00,
2013-09-05 23:07:00,76.2,37.8,29.53,SSE,147,0.0,0.0,25,0.00,,,0.00,LWC V2.10 B1813,2013-09-06 05:07:00,
2013-09-05 23:12:00,76.1,38.7,29.53,SSE,148,0.0,0.0,26,0.00,,,0.00,LWC V2.10 B1813,2013-09-06 05:12:00,
2013-09-05 23:17:00,75.9,38.5,29.53,SSE,148,0.0,0.0,26,0.00,,,0.00,LWC V2.10 B1813,2013-09-06 05:17:00,
2013-09-05 23:22:00,75.7,39.3,29.53,SSE,148,0.0,0.0,27,0.00,,,0.00,LWC V2.10 B1813,2013-09-06 05:22:00,
2013-09-05 23:27:00,75.4,39.1,29.53,SSE,148,0.0,0.0,27,0.00,,,0.00,LWC V2.10 B1813,2013-09-06 05:27:00,
2013-09-05 23:32:00,75.2,40.7,29.53,SSE,148,0.0,0.0,29,0.00,,,0.00,LWC V2.10 B1813,2013-09-06 05:32:00,
2013-09-05 23:37:00,75.1,40.7,29.53,SSE,148,0.0,0.0,29,0.00,,,0.00,LWC V2.10 B1813,2013-09-06 05:37:00,
2013-09-05 23:42:00,74.8,40.4,29.53,SSE,148,0.0,0.0,29,0.00,,,0.00,LWC V2.10 B1813,2013-09-06 05:42:00,
2013-09-05 23:47:00,74.6,40.2,29.53,SSE,148,0.0,0.0,29,0.00,,,0.00,LWC V2.10 B1813,2013-09-06 05:47:00,
2013-09-05 23:52:00,74.4,40.9,29.53,SSE,148,0.0,0.0,30,0.00,,,0.00,LWC V2.10 B1813,2013-09-06 05:52:00,
2013-09-05 23:57:00,74.2,39.9,29.53,SSE,148,0.0,0.0,29,0.00,,,0.00,LWC V2.10 B1813,2013-09-06 05:57:00,